West Homestead, Pennsylvania
Current Conditions -  °F | °C
As of 11:17 PM on Sunday 25 Jan 2015 (Local Time) from KAGC Reporting Station
Light Snow Light Snow  
Wind Chill: -4°   Ceiling: 400
Heat Index: -1°   Visibility: 1mi
Dew Point: -3°   Wind: 5mph
Humidity: 88%   Direction: NA
Pressure: 29.75"   Gusts: NA
Location:  40.3948°N, 79.9074°W
Report Text: KAGC 260417Z VRB04KT 1SM R28/P6000FT -SN BR OVC004 M01/M03 A2975 RMK AO2 P0001 T10111028
Loading
Personal Weather Stations






























Interactive Weather Map New forecast layout! Learn more

10-Day Weather Forecast

Advertisements
Track Severe Weather on mobile